Time;durP1;ratioP1;P1;durP2;ratioP2;P2;SDS_P1;SDS_P2;PMS_P1;PMS_P2;Temp;Humidity;BMP_temperature;BMP_pressure;BME280_temperature;BME280_humidity;BME280_pressure;Samples;Min_cycle;Max_cycle;Signal;HPM_P1;HPM_P2
2023/10/09 00:01:26;;;;;;;132.88;7.47;;;;;;;13.82;100.00;98496.38;4999661;28;20033;-53
2023/10/09 00:03:55;;;;;;;160.27;8.40;;;;;;;13.87;100.00;98501.53;4999985;28;20485;-54
2023/10/09 00:06:31;;;;;;;160.90;8.45;;;;;;;13.73;100.00;98499.06;5001207;28;20417;-54
2023/10/09 00:08:57;;;;;;;178.40;8.95;;;;;;;13.61;100.00;98495.66;5001444;28;20433;-53
2023/10/09 00:11:26;;;;;;;176.48;8.88;;;;;;;13.80;100.00;98496.38;5000461;28;20103;-53
2023/10/09 00:13:57;;;;;;;115.55;6.88;;;;;;;13.54;100.00;98486.09;5001732;28;20467;-53
2023/10/09 00:16:32;;;;;;;227.27;10.43;;;;;;;13.38;100.00;98493.16;4998975;28;20129;-53
2023/10/09 00:19:13;;;;;;;136.20;7.57;;;;;;;13.24;100.00;98478.44;4999429;28;20065;-53
2023/10/09 00:21:42;;;;;;;155.32;8.15;;;;;;;13.35;100.00;98480.13;4998300;28;20037;-54
2023/10/09 00:24:13;;;;;;;168.25;8.32;;;;;;;13.35;100.00;98483.59;4998785;28;20439;-55
2023/10/09 00:26:45;;;;;;;193.70;9.00;;;;;;;13.24;100.00;98486.28;4997961;28;20034;-52
2023/10/09 00:29:21;;;;;;;130.20;7.55;;;;;;;13.26;100.00;98489.75;4999941;28;20037;-54
2023/10/09 00:31:54;;;;;;;193.60;9.60;;;;;;;13.32;100.00;98478.38;4997686;28;20408;-55
2023/10/09 00:34:21;;;;;;;180.27;8.68;;;;;;;13.16;100.00;98477.63;4997775;28;20345;-53
2023/10/09 00:36:50;;;;;;;161.68;8.05;;;;;;;13.40;100.00;98468.75;4998513;28;20132;-54
2023/10/09 00:39:23;;;;;;;185.75;8.80;;;;;;;13.65;100.00;98467.72;4998477;28;20029;-53
2023/10/09 00:41:48;;;;;;;156.77;7.63;;;;;;;14.05;100.00;98459.53;4997173;28;20042;-54
2023/10/09 00:44:14;;;;;;;216.98;9.73;;;;;;;14.16;100.00;98451.59;4996660;28;20390;-53
2023/10/09 00:46:42;;;;;;;115.78;6.50;;;;;;;14.22;100.00;98445.44;4998676;28;20069;-54
2023/10/09 00:49:10;;;;;;;149.40;7.32;;;;;;;13.96;100.00;98436.09;4998143;28;20512;-54
2023/10/09 00:51:43;;;;;;;184.82;9.05;;;;;;;13.79;100.00;98426.66;4997145;28;20529;-52
2023/10/09 00:54:13;;;;;;;154.80;7.60;;;;;;;13.74;100.00;98430.19;5012888;28;20042;-53
2023/10/09 00:56:43;;;;;;;184.63;8.50;;;;;;;14.16;100.00;98424.56;4998183;28;20392;-53
2023/10/09 00:59:19;;;;;;;121.85;6.60;;;;;;;14.09;100.00;98421.13;4999551;28;20919;-53
2023/10/09 01:01:55;;;;;;;153.23;8.20;;;;;;;13.85;100.00;98417.03;4997547;28;20429;-55
2023/10/09 01:04:22;;;;;;;145.25;7.75;;;;;;;13.78;100.00;98427.53;4996756;28;20608;-54
2023/10/09 01:06:53;;;;;;;137.60;7.32;;;;;;;13.35;100.00;98420.91;4995524;28;20520;-52
2023/10/09 01:09:20;;;;;;;184.57;8.68;;;;;;;13.84;100.00;98416.16;4995898;28;20099;-52
2023/10/09 01:12:16;;;;;;;158.90;8.25;;;;;;;13.52;100.00;98410.34;4997538;28;20045;-53
2023/10/09 01:14:36;;;;;;;134.52;7.30;;;;;;;13.93;100.00;98408.22;4996320;28;20053;-53
2023/10/09 01:17:06;;;;;;;134.55;7.07;;;;;;;14.08;100.00;98403.72;4997125;28;20552;-53
2023/10/09 01:19:33;;;;;;;205.27;9.80;;;;;;;13.90;100.00;98408.25;4996809;28;20061;-52
2023/10/09 01:22:04;;;;;;;132.70;7.32;;;;;;;13.72;100.00;98403.19;4998209;28;20042;-53
2023/10/09 01:24:31;;;;;;;204.93;9.48;;;;;;;13.81;100.00;98405.75;4996780;28;20037;-53
2023/10/09 01:26:59;;;;;;;144.98;7.57;;;;;;;13.97;100.00;98403.84;4997814;28;20045;-52
2023/10/09 01:29:27;;;;;;;157.85;7.95;;;;;;;13.55;100.00;98404.25;4997618;28;20429;-53
2023/10/09 01:32:00;;;;;;;143.77;7.03;;;;;;;13.87;100.00;98408.28;4996890;28;20454;-54
2023/10/09 01:34:44;;;;;;;186.35;8.65;;;;;;;13.72;100.00;98397.97;4996345;28;20532;-53
2023/10/09 01:37:18;;;;;;;203.98;9.18;;;;;;;13.84;100.00;98390.00;4996866;28;20116;-54
2023/10/09 01:39:48;;;;;;;174.10;8.07;;;;;;;14.18;100.00;98387.03;4997337;28;20168;-53
2023/10/09 01:42:24;;;;;;;186.57;8.73;;;;;;;13.84;100.00;98376.09;4997259;28;20060;-54
2023/10/09 01:44:53;;;;;;;130.60;7.88;;;;;;;13.70;100.00;98376.22;4996492;28;20030;-53
2023/10/09 01:47:19;;;;;;;169.63;8.73;;;;;;;14.05;100.00;98377.59;4996873;28;20437;-54
2023/10/09 01:49:48;;;;;;;157.20;7.95;;;;;;;13.58;100.00;98366.75;4997218;28;20156;-53
2023/10/09 01:52:18;;;;;;;129.85;7.35;;;;;;;13.82;100.00;98370.00;4996686;28;20038;-53
2023/10/09 01:54:48;;;;;;;137.02;7.57;;;;;;;13.82;100.00;98363.03;4996426;28;20286;-52
2023/10/09 01:57:15;;;;;;;161.18;8.90;;;;;;;13.38;100.00;98358.19;4995024;28;20481;-52
2023/10/09 01:59:45;;;;;;;164.25;8.23;;;;;;;13.95;100.00;98362.91;4996716;28;20034;-54
2023/10/09 02:02:24;;;;;;;149.52;7.95;;;;;;;13.87;100.00;98358.59;4995201;28;20087;-54
2023/10/09 02:04:50;;;;;;;145.00;7.90;;;;;;;13.66;100.00;98365.78;4996385;28;20040;-53
2023/10/09 02:07:22;;;;;;;200.55;9.85;;;;;;;13.57;100.00;98370.22;4995343;28;20046;-53
2023/10/09 02:09:47;;;;;;;142.82;7.72;;;;;;;13.15;100.00;98364.44;4996005;28;20032;-52
2023/10/09 02:12:13;;;;;;;156.93;8.32;;;;;;;13.45;100.00;98359.00;4995223;28;20034;-54
2023/10/09 02:14:41;;;;;;;169.88;8.55;;;;;;;13.75;100.00;98358.72;4995696;28;20421;-52
2023/10/09 02:17:17;;;;;;;155.50;8.65;;;;;;;13.65;100.00;98351.00;4996322;28;20046;-54
2023/10/09 02:19:48;;;;;;;173.50;8.20;;;;;;;13.80;100.00;98351.69;4995680;28;20239;-52
2023/10/09 02:22:13;;;;;;;135.13;7.43;;;;;;;13.81;100.00;98356.06;4996323;28;20046;-53
2023/10/09 02:24:58;;;;;;;121.43;7.78;;;;;;;14.08;100.00;98350.53;4996206;28;20026;-55
2023/10/09 02:27:44;;;;;;;164.65;8.85;;;;;;;14.24;100.00;98351.22;4995618;28;20114;-57
2023/10/09 02:30:17;;;;;;;183.70;9.07;;;;;;;13.74;100.00;98342.16;4994652;28;20462;-53
2023/10/09 02:32:43;;;;;;;129.63;7.65;;;;;;;13.93;100.00;98348.06;4996691;28;20030;-53
2023/10/09 02:35:36;;;;;;;128.98;7.53;;;;;;;13.91;100.00;98348.97;4994913;28;20108;-53
2023/10/09 02:37:57;;;;;;;146.40;8.32;;;;;;;13.34;100.00;98339.94;4996984;28;20030;-55
2023/10/09 02:40:31;;;;;;;214.30;10.75;;;;;;;13.45;100.00;98340.72;4995048;28;20022;-53
2023/10/09 02:42:57;;;;;;;123.88;7.60;;;;;;;13.47;100.00;98340.69;4996445;28;20590;-53
2023/10/09 02:45:29;;;;;;;178.90;9.23;;;;;;;13.20;100.00;98330.47;4995525;28;20034;-53
2023/10/09 02:47:55;;;;;;;200.50;9.83;;;;;;;13.84;100.00;98331.63;4996659;28;20100;-52
2023/10/09 02:50:22;;;;;;;174.65;9.32;;;;;;;13.60;100.00;98328.38;4994302;28;20284;-53
2023/10/09 02:52:59;;;;;;;125.53;7.57;;;;;;;13.26;100.00;98332.16;4996069;28;20018;-52
2023/10/09 02:55:26;;;;;;;194.02;10.05;;;;;;;12.93;100.00;98336.78;4995607;28;20054;-53
2023/10/09 02:58:05;;;;;;;167.27;8.75;;;;;;;13.09;100.00;98338.41;4996828;28;20042;-54
2023/10/09 03:00:32;;;;;;;175.15;9.80;;;;;;;12.98;100.00;98333.25;4994554;28;20521;-52
2023/10/09 03:02:58;;;;;;;153.50;8.70;;;;;;;12.93;100.00;98337.66;4996980;28;20034;-54
2023/10/09 03:05:27;;;;;;;214.82;10.88;;;;;;;12.94;100.00;98339.38;4993482;28;20055;-54
2023/10/09 03:07:54;;;;;;;136.93;7.38;;;;;;;13.55;100.00;98336.28;4996066;28;20026;-53
2023/10/09 03:10:22;;;;;;;159.90;8.80;;;;;;;13.59;100.00;98332.75;4996384;28;20151;-53
2023/10/09 03:12:52;;;;;;;174.35;8.77;;;;;;;13.22;100.00;98333.91;4995806;28;20029;-52
2023/10/09 03:15:20;;;;;;;140.02;8.00;;;;;;;13.23;100.00;98338.28;4995329;28;20046;-55
2023/10/09 03:17:47;;;;;;;139.38;7.85;;;;;;;13.24;100.00;98336.53;4995803;28;20548;-52
2023/10/09 03:20:13;;;;;;;128.05;7.10;;;;;;;13.46;100.00;98329.38;4996088;28;20600;-54
2023/10/09 03:22:39;;;;;;;129.25;7.60;;;;;;;13.83;100.00;98322.91;4994937;28;20045;-54
2023/10/09 03:25:14;;;;;;;174.68;8.95;;;;;;;13.46;100.00;98325.88;4996639;28;20033;-54
2023/10/09 03:27:46;;;;;;;143.77;8.10;;;;;;;13.21;100.00;98320.91;4998720;28;20053;-52
2023/10/09 03:30:22;;;;;;;134.65;8.05;;;;;;;12.85;100.00;98323.78;5000243;28;20557;-54
2023/10/09 03:32:50;;;;;;;100.32;6.63;;;;;;;12.65;100.00;98316.09;5000393;28;20344;-53
2023/10/09 03:35:26;;;;;;;166.75;8.95;;;;;;;12.95;100.00;98320.22;4998173;28;20392;-51
2023/10/09 03:38:00;;;;;;;120.00;7.22;;;;;;;12.69;100.00;98317.81;5014451;28;20026;-53
2023/10/09 03:40:25;;;;;;;129.02;8.00;;;;;;;12.67;100.00;98320.44;4998832;28;20598;-53
2023/10/09 03:42:51;;;;;;;135.25;7.70;;;;;;;13.00;100.00;98317.59;4999526;28;20053;-51
2023/10/09 03:45:29;;;;;;;112.70;7.30;;;;;;;12.80;100.00;98309.91;4997710;28;20525;-53
2023/10/09 03:48:08;;;;;;;207.18;10.13;;;;;;;12.91;100.00;98307.22;4998955;28;20022;-53
2023/10/09 03:50:37;;;;;;;144.40;8.07;;;;;;;13.32;100.00;98303.38;4998099;28;20113;-53
2023/10/09 03:53:07;;;;;;;179.55;9.25;;;;;;;13.20;100.00;98300.84;4998821;28;20113;-53
2023/10/09 03:55:32;;;;;;;169.05;8.98;;;;;;;12.84;100.00;98303.78;4997141;28;20121;-54
2023/10/09 03:57:59;;;;;;;159.10;8.45;;;;;;;12.56;100.00;98298.75;4999893;28;20125;-54
2023/10/09 04:00:29;;;;;;;204.30;10.07;;;;;;;12.93;100.00;98300.22;4997291;28;20033;-53
2023/10/09 04:02:58;;;;;;;145.70;7.68;;;;;;;12.88;100.00;98285.47;4999479;28;20117;-53
2023/10/09 04:05:24;;;;;;;141.77;7.55;;;;;;;13.13;100.00;98300.94;4996848;28;20524;-54
2023/10/09 04:07:53;;;;;;;159.52;8.82;;;;;;;13.35;100.00;98287.66;4995231;28;20048;-53
2023/10/09 04:13:03;;;;;;;155.30;8.35;;;;;;;12.58;100.00;98290.03;4999089;28;20029;-53
2023/10/09 04:15:30;;;;;;;172.10;9.02;;;;;;;12.91;100.00;98292.41;4997429;28;20042;-56
2023/10/09 04:17:56;;;;;;;196.32;9.90;;;;;;;13.01;100.00;98287.97;4997896;28;20474;-56
2023/10/09 04:22:50;;;;;;;98.15;6.45;;;;;;;12.93;100.00;98289.78;4998566;28;20319;-54
2023/10/09 04:25:41;;;;;;;195.90;9.68;;;;;;;12.84;100.00;98295.97;4995418;28;20117;-54
2023/10/09 04:28:18;;;;;;;155.05;8.50;;;;;;;12.63;100.00;98297.84;4998740;28;20108;-56
2023/10/09 04:31:06;;;;;;;137.38;8.38;;;;;;;12.48;100.00;98293.59;4997991;28;20037;-56
2023/10/09 04:36:26;;;;;;;142.82;8.02;;;;;;;12.73;100.00;98278.63;4997864;28;20676;-55
2023/10/09 04:38:55;;;;;;;184.82;9.60;;;;;;;12.72;100.00;98276.88;4997971;28;20123;-56
2023/10/09 04:41:39;;;;;;;168.32;10.05;;;;;;;12.62;100.00;98275.25;4998205;28;20132;-55
2023/10/09 04:46:44;;;;;;;148.82;9.05;;;;;;;12.69;100.00;98266.47;4998204;28;21557;-55
2023/10/09 04:49:27;;;;;;;187.35;10.35;;;;;;;12.65;100.00;98269.97;4997832;28;20190;-54
2023/10/09 04:52:09;;;;;;;141.55;8.95;;;;;;;12.56;100.00;98270.03;4997588;28;20041;-55
2023/10/09 04:55:03;;;;;;;249.38;13.20;;;;;;;12.27;100.00;98273.69;4996679;28;20037;-55
2023/10/09 04:57:26;;;;;;;213.07;14.70;;;;;;;12.08;100.00;98272.06;4996638;28;20042;-55
2023/10/09 04:59:51;;;;;;;154.95;12.45;;;;;;;12.27;100.00;98274.56;4997784;28;20061;-54
2023/10/09 05:02:19;;;;;;;144.40;11.63;;;;;;;12.48;100.00;98280.53;4997215;28;20718;-53
2023/10/09 05:05:01;;;;;;;177.82;10.77;;;;;;;12.46;100.00;98269.22;4995127;28;20261;-53
2023/10/09 05:07:54;;;;;;;144.10;11.65;;;;;;;12.23;100.00;98263.31;4995735;28;20037;-55
2023/10/09 05:10:16;;;;;;;187.35;12.38;;;;;;;12.34;100.00;98272.78;4995925;28;20151;-54
2023/10/09 05:12:47;;;;;;;221.48;13.52;;;;;;;12.29;100.00;98270.19;4998486;28;20034;-53
2023/10/09 05:15:14;;;;;;;221.07;11.57;;;;;;;12.32;100.00;98271.94;4995160;28;20048;-56
2023/10/09 05:17:39;;;;;;;182.15;11.48;;;;;;;12.34;100.00;98280.63;4996012;28;20045;-53
2023/10/09 05:22:57;;;;;;;156.98;9.27;;;;;;;11.81;100.00;98288.66;4997763;28;20119;-54
2023/10/09 05:28:52;;;;;;;163.00;9.98;;;;;;;11.21;100.00;98300.91;4997575;28;20080;-55
2023/10/09 05:31:08;;;;;;;146.27;9.27;;;;;;;11.43;100.00;98295.72;4993740;28;20595;-55
2023/10/09 05:33:37;;;;;;;217.38;13.52;;;;;;;11.32;100.00;98304.38;4996450;28;20022;-56
2023/10/09 05:36:14;;;;;;;179.27;13.50;;;;;;;11.75;100.00;98297.34;4996141;28;20171;-56
2023/10/09 05:38:46;;;;;;;236.07;14.25;;;;;;;12.14;100.00;98297.22;4996394;28;20483;-55
2023/10/09 05:49:45;;;;;;;193.80;10.95;;;;;;;11.56;100.00;98292.22;4994442;28;20459;-54
2023/10/09 05:52:42;;;;;;;168.55;10.45;;;;;;;12.04;100.00;98278.13;4994381;28;20671;-56
2023/10/09 06:05:50;;;;;;;165.05;9.93;;;;;;;13.26;100.00;98279.94;4994553;28;20049;-56
2023/10/09 06:08:24;;;;;;;171.57;9.25;;;;;;;13.59;100.00;98283.09;4995562;28;20124;-54
2023/10/09 06:11:05;;;;;;;136.02;8.50;;;;;;;13.15;100.00;98293.94;4995769;28;20057;-54
2023/10/09 06:13:37;;;;;;;203.80;11.15;;;;;;;13.18;100.00;98307.84;4992955;28;20025;-55
2023/10/09 06:16:19;;;;;;;147.07;8.95;;;;;;;13.27;100.00;98308.66;4995711;28;20100;-55
2023/10/09 06:18:53;;;;;;;148.90;8.38;;;;;;;13.85;100.00;98299.38;4996530;28;20040;-54
2023/10/09 06:24:14;;;;;;;151.20;8.48;;;;;;;13.28;100.00;98307.75;4996401;28;20128;-54
2023/10/09 06:26:51;;;;;;;199.40;11.00;;;;;;;14.54;100.00;98299.34;4995728;28;20029;-53
2023/10/09 06:29:33;;;;;;;100.93;8.40;;;;;;;14.72;100.00;98285.13;4998396;28;20450;-55
2023/10/09 06:32:05;;;;;;;;;;;;;;;14.73;100.00;98292.09;4995977;28;20041;-54
2023/10/09 06:34:35;;;;;;;131.18;8.57;;;;;;;14.31;100.00;98287.47;4996583;28;19913;-54
2023/10/09 06:42:33;;;;;;;161.85;9.15;;;;;;;14.32;100.00;98291.78;4997213;28;20042;-55
2023/10/09 06:47:53;;;;;;;174.25;9.98;;;;;;;14.80;100.00;98300.75;4996590;28;20038;-57
2023/10/09 06:52:57;;;;;;;136.65;8.13;;;;;;;14.39;100.00;98310.91;4995477;28;22668;-56
2023/10/09 06:55:37;;;;;;;128.05;7.60;;;;;;;14.48;100.00;98309.91;5011259;28;20113;-55
2023/10/09 06:58:09;;;;;;;199.20;10.23;;;;;;;14.99;100.00;98310.94;4996997;28;20061;-56
2023/10/09 07:00:54;;;;;;;168.88;9.27;;;;;;;15.63;100.00;98300.22;5000721;28;20030;-55
2023/10/09 07:03:19;;;;;;;156.27;9.50;;;;;;;16.04;100.00;98304.69;4996520;28;20525;-56
2023/10/09 07:06:04;;;;;;;129.52;8.63;;;;;;;16.75;100.00;98303.16;5003704;28;20052;-54
2023/10/09 07:08:37;;;;;;;146.30;8.52;;;;;;;17.77;100.00;98312.00;5004401;28;20434;-56
2023/10/09 07:11:56;;;;;;;57.03;5.93;;;;;;;18.17;100.00;98319.69;5005584;28;20038;-61
2023/10/09 07:17:00;;;;;;;101.50;6.93;;;;;;;18.46;100.00;98323.25;5005068;28;20519;-56
2023/10/09 07:19:57;;;;;;;77.00;7.28;;;;;;;19.49;100.00;98317.38;5004046;28;20083;-57
2023/10/09 07:22:29;;;;;;;72.55;6.22;;;;;;;19.76;100.00;98319.94;5004638;28;20042;-56
2023/10/09 07:24:58;;;;;;;95.50;7.25;;;;;;;21.07;95.04;98325.63;5004599;28;20025;-57
2023/10/09 07:27:48;;;;;;;99.30;6.90;;;;;;;21.51;79.99;98324.69;5004982;28;20037;-55
2023/10/09 07:32:52;;;;;;;69.10;6.15;;;;;;;22.83;69.01;98322.38;5004055;28;20041;-55
2023/10/09 07:35:46;;;;;;;103.45;7.85;;;;;;;24.23;63.23;98325.94;5003871;28;20033;-56
2023/10/09 07:38:03;;;;;;;107.75;7.25;;;;;;;24.98;55.93;98331.63;5004831;28;20029;-55
2023/10/09 07:40:31;;;;;;;107.22;7.57;;;;;;;25.86;52.29;98334.47;5004069;28;20034;-54
2023/10/09 07:43:04;;;;;;;77.80;6.70;;;;;;;26.73;49.33;98341.59;5004338;28;20033;-53
2023/10/09 07:50:28;;;;;;;81.40;7.03;;;;;;;29.52;42.15;98339.31;5004474;28;20054;-56
2023/10/09 07:53:14;;;;;;;107.90;16.10;;;;;;;30.30;39.59;98341.41;5003968;28;20014;-56
2023/10/09 07:55:45;;;;;;;122.88;8.98;;;;;;;28.54;40.58;98342.81;5004104;28;20880;-55
2023/10/09 07:58:11;;;;;;;108.80;18.00;;;;;;;27.41;43.87;98346.09;5003912;28;20443;-57
2023/10/09 08:01:05;;;;;;;140.30;10.25;;;;;;;28.57;41.56;98333.72;5003046;28;20314;-53
2023/10/09 08:03:29;;;;;;;120.53;9.75;;;;;;;28.19;42.50;98340.81;5003915;28;20692;-56
2023/10/09 08:06:06;;;;;;;65.55;6.85;;;;;;;29.27;41.32;98351.91;5002432;28;20042;-55
2023/10/09 08:14:00;;;;;;;456.50;347.48;;;;;;;26.18;46.99;98349.44;5001308;28;20048;-54
2023/10/09 08:16:36;;;;;;;252.88;177.60;;;;;;;25.29;48.52;98346.69;5003938;28;20042;-56
2023/10/09 08:19:20;;;;;;;195.45;104.50;;;;;;;25.89;49.28;98361.88;5003679;28;20030;-54
2023/10/09 08:22:07;;;;;;;285.27;208.63;;;;;;;26.24;47.39;98354.38;5003036;28;20501;-54
2023/10/09 08:24:49;;;;;;;90.88;7.95;;;;;;;26.74;48.22;98356.63;5003145;28;20574;-54
2023/10/09 08:32:42;;;;;;;212.55;75.57;;;;;;;28.35;43.23;98363.84;5000879;28;20114;-55
2023/10/09 08:35:29;;;;;;;374.50;335.40;;;;;;;29.40;41.02;98355.34;4998923;28;20366;-54
2023/10/09 08:37:58;;;;;;;276.85;179.43;;;;;;;27.92;43.36;98363.19;5001304;28;20017;-54
2023/10/09 08:40:37;;;;;;;303.10;234.93;;;;;;;25.37;49.59;98366.66;5001343;28;20036;-55
2023/10/09 08:43:21;;;;;;;283.77;214.10;;;;;;;24.90;49.39;98369.34;5002238;28;20036;-54
2023/10/09 08:45:53;;;;;;;439.30;316.77;;;;;;;24.97;51.99;98362.69;5008246;28;20072;-56
2023/10/09 08:48:21;;;;;;;268.73;158.25;;;;;;;23.67;52.83;98360.69;5001444;28;20030;-55
2023/10/09 08:50:49;;;;;;;278.02;116.55;;;;;;;22.80;57.58;98365.81;5001154;28;20033;-57
2023/10/09 08:53:16;;;;;;;427.48;319.73;;;;;;;22.96;58.88;98368.56;5000892;28;20022;-56
2023/10/09 08:55:42;;;;;;;232.45;86.63;;;;;;;22.93;57.82;98371.34;4999739;28;20601;-57
2023/10/09 09:00:55;;;;;;;179.98;56.88;;;;;;;22.40;61.37;98368.50;5002652;28;20040;-56
2023/10/09 09:03:23;;;;;;;107.25;11.50;;;;;;;21.87;61.61;98372.63;5001710;28;20087;-57
2023/10/09 09:06:01;;;;;;;315.35;161.55;;;;;;;21.83;61.86;98370.09;5001954;28;20071;-57
2023/10/09 09:08:29;;;;;;;189.10;117.05;;;;;;;21.71;64.68;98366.16;5003195;28;20029;-54
2023/10/09 09:11:14;;;;;;;188.98;81.55;;;;;;;21.48;67.70;98363.66;5001456;28;20046;-55
2023/10/09 09:13:58;;;;;;;164.48;10.23;;;;;;;22.00;72.21;98362.34;5001463;28;20038;-55
2023/10/09 09:16:31;;;;;;;106.32;7.22;;;;;;;23.48;64.32;98371.38;5001098;28;20520;-55
2023/10/09 09:19:40;;;;;;;138.60;35.78;;;;;;;24.75;59.56;98371.84;5002299;28;20042;-57
2023/10/09 09:21:54;;;;;;;130.68;9.02;;;;;;;26.72;50.20;98360.34;4998383;28;20038;-55
2023/10/09 09:26:59;;;;;;;117.65;7.65;;;;;;;22.94;59.83;98383.69;5001539;28;20117;-56
2023/10/09 09:29:52;;;;;;;130.05;12.07;;;;;;;23.09;63.82;98386.53;5002103;28;20030;-54
2023/10/09 09:32:29;;;;;;;200.60;106.20;;;;;;;23.20;67.30;98386.84;5001714;28;20046;-54
2023/10/09 09:35:00;;;;;;;149.35;23.77;;;;;;;23.33;66.39;98394.22;4999163;28;20042;-57
2023/10/09 09:37:28;;;;;;;103.47;7.67;;;;;;;22.53;72.11;98397.91;4999947;28;20069;-53
2023/10/09 09:40:14;;;;;;;426.50;230.82;;;;;;;22.36;70.77;98382.81;4999073;28;20037;-55
2023/10/09 09:42:45;;;;;;;268.25;174.95;;;;;;;22.12;71.28;98388.25;4999784;28;20048;-56
2023/10/09 09:45:11;;;;;;;141.13;10.98;;;;;;;21.71;73.65;98382.03;5000856;28;20136;-56
2023/10/09 09:47:37;;;;;;;169.50;102.53;;;;;;;21.20;77.40;98382.38;5016129;28;20479;-56
2023/10/09 09:50:13;;;;;;;97.43;9.55;;;;;;;20.93;82.38;98374.63;5000949;28;20030;-57
2023/10/09 09:52:38;;;;;;;111.63;8.02;;;;;;;20.50;90.99;98376.28;5000933;28;20520;-56
2023/10/09 09:55:07;;;;;;;94.93;7.32;;;;;;;20.68;94.20;98391.41;5001469;28;20034;-56
2023/10/09 09:57:37;;;;;;;106.97;7.80;;;;;;;21.29;83.32;98378.50;5001780;28;20452;-56
2023/10/09 10:00:07;;;;;;;96.18;7.38;;;;;;;20.78;94.13;98377.84;5001438;28;20022;-56
2023/10/09 10:02:38;;;;;;;82.63;6.78;;;;;;;20.80;92.81;98382.16;5000946;28;20077;-56
2023/10/09 10:05:08;;;;;;;115.38;7.88;;;;;;;20.88;99.40;98379.25;5001601;28;20030;-56
2023/10/09 10:07:39;;;;;;;80.40;6.85;;;;;;;21.13;94.54;98380.91;5002196;28;20152;-55
2023/10/09 10:10:38;;;;;;;115.57;7.80;;;;;;;20.42;100.00;98400.34;5015717;28;20129;-55
2023/10/09 10:13:14;;;;;;;107.88;7.78;;;;;;;20.38;100.00;98404.84;5001784;28;20034;-55
2023/10/09 10:16:02;;;;;;;89.72;7.47;;;;;;;20.80;100.00;98397.16;5000480;28;20481;-57
2023/10/09 10:18:53;;;;;;;122.95;8.52;;;;;;;20.72;100.00;98394.81;5001159;28;20026;-54
2023/10/09 10:21:29;;;;;;;104.88;7.80;;;;;;;21.23;100.00;98394.59;5000757;28;20045;-56
2023/10/09 10:24:05;;;;;;;141.00;10.05;;;;;;;21.26;100.00;98386.56;5000511;28;20022;-55
2023/10/09 10:26:33;;;;;;;116.70;7.90;;;;;;;21.76;96.56;98381.03;5001750;28;20064;-56
2023/10/09 10:29:33;;;;;;;96.55;7.65;;;;;;;21.56;99.72;98380.06;5000825;28;20654;-55
2023/10/09 10:32:10;;;;;;;120.38;8.70;;;;;;;21.32;97.37;98383.69;5000192;28;20049;-56
2023/10/09 10:34:56;;;;;;;91.20;7.60;;;;;;;20.78;100.00;98385.75;5000238;28;20024;-56
2023/10/09 10:38:03;;;;;;;95.72;7.57;;;;;;;21.25;98.37;98387.47;4999692;28;20041;-57
2023/10/09 10:40:46;;;;;;;99.90;7.63;;;;;;;21.33;100.00;98374.81;5000289;28;20022;-57
2023/10/09 10:43:31;;;;;;;101.10;7.72;;;;;;;21.07;100.00;98375.84;5000143;28;20041;-55
2023/10/09 10:46:13;;;;;;;128.07;8.57;;;;;;;21.01;100.00;98386.69;5008333;28;20073;-55
2023/10/09 10:48:39;;;;;;;105.60;7.97;;;;;;;20.90;100.00;98387.13;5001188;28;20037;-54
2023/10/09 10:51:04;;;;;;;120.10;8.20;;;;;;;20.74;100.00;98385.03;4999091;28;20045;-53
2023/10/09 10:53:47;;;;;;;143.38;9.23;;;;;;;21.03;100.00;98371.63;4997497;28;20200;-54
2023/10/09 10:56:18;;;;;;;;;;;;;;;;;;;;;
2023/10/09 10:59:22;;;;;;;153.63;9.80;;;;;;;22.03;100.00;98356.91;5014728;28;20477;-53
2023/10/09 11:04:27;;;;;;;98.07;7.47;;;;;;;21.80;99.06;98330.53;5000932;28;20044;-55
2023/10/09 11:07:00;;;;;;;109.30;7.38;;;;;;;21.79;95.87;98322.66;5000930;28;20037;-55
2023/10/09 11:09:35;;;;;;;107.57;7.60;;;;;;;21.47;95.51;98320.44;5001199;28;20040;-56
2023/10/09 11:12:22;;;;;;;84.20;6.65;;;;;;;21.44;100.00;98320.56;4999779;28;20616;-55
2023/10/09 11:15:08;;;;;;;157.15;9.95;;;;;;;21.91;97.16;98316.81;4999547;28;20030;-56
2023/10/09 11:17:35;;;;;;;119.95;7.97;;;;;;;21.84;98.41;98318.00;4999483;28;20041;-54
2023/10/09 11:20:24;;;;;;;88.93;6.68;;;;;;;22.57;92.14;98304.09;5000224;28;20053;-55
2023/10/09 11:25:38;;;;;;;106.63;7.00;;;;;;;22.86;89.59;98312.47;5000903;28;20096;-55
2023/10/09 11:28:42;;;;;;;108.05;7.57;;;;;;;23.00;82.47;98311.78;5000842;28;20030;-56
2023/10/09 11:31:11;;;;;;;123.65;8.20;;;;;;;23.18;84.27;98324.19;4998884;28;20034;-54
2023/10/09 11:33:51;;;;;;;138.13;47.58;;;;;;;23.00;86.81;98334.78;5001597;28;20540;-56
2023/10/09 11:36:34;;;;;;;90.00;9.10;;;;;;;23.10;87.02;98332.53;4999580;28;20246;-54
2023/10/09 11:39:21;;;;;;;148.15;25.02;;;;;;;22.33;89.25;98352.00;4999362;28;20026;-54
2023/10/09 11:41:49;;;;;;;168.60;57.78;;;;;;;21.97;93.94;98381.84;4999622;28;20079;-54
2023/10/09 11:44:19;;;;;;;129.75;55.20;;;;;;;21.81;91.25;98386.97;5001385;28;20444;-55
2023/10/09 11:46:58;;;;;;;142.55;54.85;;;;;;;21.92;95.36;98357.38;5001787;28;20065;-56
2023/10/09 11:49:34;;;;;;;109.90;14.93;;;;;;;22.00;92.88;98312.03;5003281;28;20068;-54
2023/10/09 11:52:35;;;;;;;175.10;12.55;;;;;;;22.02;86.46;98299.56;5001996;28;20400;-56
2023/10/09 11:54:56;;;;;;;176.70;9.55;;;;;;;22.06;83.41;98314.41;5001467;28;20196;-55
2023/10/09 11:57:30;;;;;;;102.38;13.00;;;;;;;22.28;82.47;98316.06;5003209;28;20049;-55
2023/10/09 11:59:55;;;;;;;177.63;10.45;;;;;;;22.09;82.43;98324.84;5015707;28;20428;-56
2023/10/09 12:02:21;;;;;;;76.47;7.30;;;;;;;22.60;77.12;98350.84;5002934;28;20747;-55
2023/10/09 12:04:46;;;;;;;139.90;9.13;;;;;;;22.21;79.06;98385.22;5003379;28;20025;-57
2023/10/09 12:07:11;;;;;;;139.70;15.75;;;;;;;21.77;81.15;98393.31;5002414;28;20553;-56
2023/10/09 12:09:37;;;;;;;99.93;16.40;;;;;;;21.85;81.73;98397.38;5003811;28;20025;-57
2023/10/09 12:12:08;;;;;;;89.63;6.53;;;;;;;21.67;81.15;98417.50;5001647;28;20037;-55
2023/10/09 12:14:34;;;;;;;111.95;6.85;;;;;;;21.31;84.37;98416.31;5002441;28;20034;-55
2023/10/09 12:17:05;;;;;;;149.20;9.52;;;;;;;21.31;84.52;98431.34;5001529;28;20036;-56
2023/10/09 12:19:34;;;;;;;141.82;44.25;;;;;;;21.56;82.99;98443.59;5002157;28;20509;-55
2023/10/09 12:22:03;;;;;;;190.52;12.43;;;;;;;21.40;85.79;98443.31;4999624;28;20034;-56
2023/10/09 12:24:29;;;;;;;94.05;6.55;;;;;;;20.98;87.99;98429.13;5001606;28;20108;-56
2023/10/09 12:26:55;;;;;;;160.25;9.00;;;;;;;20.71;91.72;98398.34;5000991;28;20029;-56
2023/10/09 12:29:21;;;;;;;116.78;7.50;;;;;;;20.28;95.38;98340.97;5001615;28;20021;-56
2023/10/09 12:31:46;;;;;;;170.95;47.92;;;;;;;20.09;100.00;98314.41;5000542;28;20053;-54
2023/10/09 12:34:16;;;;;;;133.18;7.82;;;;;;;20.61;96.65;98294.81;5001836;28;20065;-55
2023/10/09 12:36:45;;;;;;;237.93;131.88;;;;;;;20.85;97.67;98270.09;5000808;28;20042;-56
2023/10/09 12:39:17;;;;;;;117.15;13.55;;;;;;;21.14;92.57;98237.19;5001397;28;20041;-55
2023/10/09 12:41:44;;;;;;;102.72;9.65;;;;;;;21.85;86.60;98241.16;5001937;28;20042;-53
2023/10/09 12:44:18;;;;;;;93.90;7.10;;;;;;;22.03;84.63;98227.13;5003324;28;20501;-57
2023/10/09 12:46:53;;;;;;;109.63;7.68;;;;;;;22.16;79.93;98232.72;5002604;28;20321;-55
2023/10/09 12:49:25;;;;;;;75.00;10.13;;;;;;;21.72;80.31;98229.41;5002685;28;20311;-57
2023/10/09 12:51:54;;;;;;;215.50;11.50;;;;;;;21.97;80.06;98230.91;5000825;28;20457;-55
2023/10/09 12:54:29;;;;;;;141.60;48.97;;;;;;;22.28;77.63;98213.59;4999827;28;20033;-56
2023/10/09 12:56:59;;;;;;;187.73;10.63;;;;;;;22.46;80.01;98211.84;4999612;28;20030;-56
2023/10/09 12:59:24;;;;;;;167.07;17.00;;;;;;;22.01;76.64;98213.13;5001666;28;20497;-56
2023/10/09 13:01:57;;;;;;;221.75;39.90;;;;;;;22.20;73.82;98211.31;5000856;28;20034;-55